createdAt,value
2019-03-10T00:02:15.109Z,2.00
2019-03-10T00:04:44.003Z,1.90
2019-03-10T00:07:12.949Z,2.33
2019-03-10T00:09:41.875Z,4.53
2019-03-10T00:12:10.905Z,3.60
2019-03-10T00:14:39.864Z,2.60
2019-03-10T00:17:08.768Z,2.67
2019-03-10T00:19:37.658Z,2.83
2019-03-10T00:22:06.634Z,1.77
2019-03-10T00:24:35.641Z,2.20
2019-03-10T00:27:04.532Z,1.97
2019-03-10T00:29:33.429Z,6.57
2019-03-10T00:32:02.332Z,3.20
2019-03-10T00:34:31.293Z,2.73
2019-03-10T00:37:00.176Z,2.57
2019-03-10T00:39:42.708Z,2.47
2019-03-10T00:42:16.101Z,1.83
2019-03-10T00:45:01.952Z,3.50
2019-03-10T00:47:47.396Z,2.80
2019-03-10T00:50:26.695Z,2.33
2019-03-10T00:52:59.464Z,2.43
2019-03-10T00:55:28.562Z,4.17
2019-03-10T00:57:57.525Z,2.03
2019-03-10T01:00:26.413Z,4.27
2019-03-10T01:02:55.403Z,3.60
2019-03-10T01:05:24.305Z,6.40
2019-03-10T01:07:53.423Z,2.27
2019-03-10T01:10:22.316Z,2.20
2019-03-10T01:12:51.217Z,4.03
2019-03-10T01:15:20.235Z,3.50
2019-03-10T01:17:49.519Z,3.60
2019-03-10T01:20:18.408Z,6.73
2019-03-10T01:22:47.319Z,3.33
2019-03-10T01:25:16.358Z,4.00
2019-03-10T01:27:45.259Z,4.90
2019-03-10T01:30:18.520Z,2.77
2019-03-10T01:33:04.323Z,7.40
2019-03-10T01:35:33.335Z,3.10
2019-03-10T01:38:02.228Z,5.57
2019-03-10T01:40:31.320Z,3.33
2019-03-10T01:43:00.213Z,5.07
2019-03-10T01:45:29.092Z,3.20
2019-03-10T01:47:59.307Z,4.03
2019-03-10T01:50:28.471Z,4.80
2019-03-10T01:52:57.442Z,4.27
2019-03-10T01:55:26.356Z,9.80
2019-03-10T01:57:55.377Z,4.73
2019-03-10T02:00:24.388Z,5.27
2019-03-10T02:02:53.315Z,4.33
2019-03-10T02:05:22.346Z,4.30
2019-03-10T02:07:51.239Z,3.93
2019-03-10T02:10:20.224Z,5.67
2019-03-10T02:12:49.128Z,4.50
2019-03-10T02:15:18.097Z,5.60
2019-03-10T02:17:47.006Z,5.00
2019-03-10T02:20:16.820Z,4.00
2019-03-10T02:22:45.708Z,5.47
2019-03-10T02:25:14.725Z,4.43
2019-03-10T02:27:43.697Z,4.83
2019-03-10T02:30:13.723Z,4.30
2019-03-10T02:32:42.726Z,6.57
2019-03-10T02:35:11.615Z,5.80
2019-03-10T02:37:40.505Z,10.10
2019-03-10T02:40:09.583Z,4.73
2019-03-10T02:42:38.565Z,4.97
2019-03-10T02:45:08.415Z,4.43
2019-03-10T02:47:37.381Z,4.53
2019-03-10T02:50:07.662Z,3.20
2019-03-10T02:52:36.826Z,4.13
2019-03-10T02:55:06.883Z,3.93
2019-03-10T02:57:35.793Z,4.90
2019-03-10T03:00:06.215Z,3.97
2019-03-10T03:02:35.385Z,5.27
2019-03-10T03:05:05.573Z,3.90
2019-03-10T03:07:34.478Z,4.43
2019-03-10T03:10:04.169Z,5.27
2019-03-10T03:12:33.144Z,6.23
2019-03-10T03:15:02.155Z,4.10
2019-03-10T03:17:32.948Z,4.27
2019-03-10T03:20:01.844Z,4.07
2019-03-10T03:22:31.912Z,4.50
2019-03-10T03:25:00.827Z,4.60
2019-03-10T03:27:29.764Z,5.70
2019-03-10T03:29:58.652Z,4.73
2019-03-10T03:32:27.608Z,4.63
2019-03-10T03:34:57.621Z,4.73
2019-03-10T03:37:26.667Z,3.57
2019-03-10T03:39:55.739Z,3.97
2019-03-10T03:42:24.647Z,3.93
2019-03-10T03:44:53.547Z,3.90
2019-03-10T03:47:22.433Z,3.97
2019-03-10T03:49:51.338Z,5.80
2019-03-10T03:52:20.286Z,3.73
2019-03-10T03:54:49.215Z,3.23
2019-03-10T03:57:18.108Z,1.97
2019-03-10T03:59:47.118Z,2.90
2019-03-10T04:02:17.642Z,2.53
2019-03-10T04:04:46.521Z,2.63
2019-03-10T04:07:15.516Z,2.83
2019-03-10T04:09:44.405Z,3.00
2019-03-10T04:12:13.303Z,2.40
2019-03-10T04:14:42.309Z,4.97
2019-03-10T04:17:11.275Z,2.20
2019-03-10T04:19:40.192Z,2.23
2019-03-10T04:22:09.172Z,2.13
2019-03-10T04:24:38.071Z,2.90
2019-03-10T04:27:07.029Z,1.00
2019-03-10T04:29:36.028Z,1.40
2019-03-10T04:32:04.995Z,1.00
2019-03-10T04:34:33.883Z,1.37
2019-03-10T04:37:02.811Z,2.90
2019-03-10T04:39:31.780Z,0.80
2019-03-10T04:42:00.680Z,2.73
2019-03-10T04:44:29.599Z,1.13
2019-03-10T04:46:58.504Z,0.50
2019-03-10T04:49:27.467Z,0.50
2019-03-10T04:51:56.444Z,2.90
2019-03-10T04:54:33.794Z,1.57
2019-03-10T04:57:04.356Z,0.70
2019-03-10T04:59:33.343Z,1.57
2019-03-10T05:02:02.245Z,0.80
2019-03-10T05:04:31.739Z,0.50
2019-03-10T05:07:00.918Z,0.40
2019-03-10T05:09:29.844Z,0.40
2019-03-10T05:11:58.732Z,0.63
2019-03-10T05:14:27.623Z,0.50
2019-03-10T05:16:56.595Z,0.40
2019-03-10T05:19:25.490Z,0.47
2019-03-10T05:21:54.438Z,0.30
2019-03-10T05:24:23.408Z,0.40
2019-03-10T05:26:52.295Z,0.33
2019-03-10T05:29:21.275Z,0.40
2019-03-10T05:31:50.159Z,1.50
2019-03-10T05:34:19.044Z,0.60
2019-03-10T05:36:47.948Z,1.53
2019-03-10T05:39:16.837Z,0.30
2019-03-10T05:41:45.830Z,0.27
2019-03-10T05:44:14.738Z,1.20
2019-03-10T05:46:43.684Z,0.40
2019-03-10T05:49:12.642Z,0.47
2019-03-10T05:51:41.544Z,0.30
2019-03-10T05:54:10.441Z,0.83
2019-03-10T05:56:39.480Z,0.40
2019-03-10T05:59:08.368Z,0.40
2019-03-10T06:01:37.356Z,0.27
2019-03-10T06:04:06.353Z,0.30
2019-03-10T06:06:36.201Z,0.43
2019-03-10T06:09:05.466Z,0.40
2019-03-10T06:11:34.444Z,0.30
2019-03-10T06:14:03.427Z,0.27
2019-03-10T06:16:32.372Z,0.30
2019-03-10T06:19:01.263Z,0.60
2019-03-10T06:21:30.198Z,0.30
2019-03-10T06:23:59.212Z,0.90
2019-03-10T06:26:28.100Z,0.30
2019-03-10T06:28:58.230Z,2.57
2019-03-10T06:31:27.117Z,0.93
2019-03-10T06:33:56.004Z,0.27
2019-03-10T06:36:24.993Z,0.27
2019-03-10T06:38:55.173Z,0.20
2019-03-10T06:41:24.255Z,0.20
2019-03-10T06:43:53.181Z,0.20
2019-03-10T06:46:22.061Z,0.20
2019-03-10T06:48:50.981Z,0.17
2019-03-10T06:51:19.885Z,0.37
2019-03-10T06:53:50.394Z,0.20
2019-03-10T06:56:19.314Z,1.17
2019-03-10T06:58:48.199Z,3.80
2019-03-10T07:01:17.353Z,0.30
2019-03-10T07:03:46.284Z,0.73
2019-03-10T07:06:15.168Z,0.70
2019-03-10T07:08:44.070Z,2.20
2019-03-10T07:11:12.976Z,0.90
2019-03-10T07:13:41.919Z,2.43
2019-03-10T07:16:10.818Z,1.33
2019-03-10T07:18:39.718Z,0.70
2019-03-10T07:21:08.615Z,1.20
2019-03-10T07:23:37.501Z,0.77
2019-03-10T07:26:06.494Z,0.27
2019-03-10T07:28:37.185Z,0.60
2019-03-10T07:31:22.856Z,0.37
2019-03-10T07:33:53.407Z,0.30
2019-03-10T07:36:30.238Z,5.00
2019-03-10T07:39:00.751Z,0.60
2019-03-10T07:41:42.208Z,0.43
2019-03-10T07:44:15.612Z,0.53
2019-03-10T07:46:48.599Z,0.80
2019-03-10T07:49:34.232Z,2.43
2019-03-10T07:52:20.177Z,1.87
2019-03-10T07:54:48.636Z,0.87
2019-03-10T07:57:25.164Z,1.30
2019-03-10T08:00:01.725Z,0.47
2019-03-10T08:02:41.941Z,1.53
2019-03-10T08:05:18.024Z,1.07
2019-03-10T08:08:04.682Z,0.80
2019-03-10T08:10:53.462Z,2.10
2019-03-10T08:13:32.895Z,1.03
2019-03-10T08:16:03.467Z,3.13
2019-03-10T08:18:37.017Z,0.47
2019-03-10T08:21:07.577Z,0.87
2019-03-10T08:23:43.945Z,1.13
2019-03-10T08:26:32.827Z,2.97
2019-03-10T08:29:03.358Z,0.50
2019-03-10T08:31:50.073Z,0.47
2019-03-10T08:34:23.523Z,0.67
2019-03-10T08:36:54.118Z,0.83
2019-03-10T08:39:36.948Z,1.50
2019-03-10T08:42:07.515Z,2.27
2019-03-10T08:44:44.029Z,0.70
2019-03-10T08:47:31.112Z,0.50
2019-03-10T08:50:10.815Z,0.87
2019-03-10T08:52:41.373Z,1.73
2019-03-10T08:55:16.192Z,0.70
2019-03-10T08:58:01.553Z,0.63
2019-03-10T09:00:47.263Z,2.20
2019-03-10T09:03:23.421Z,2.40
2019-03-10T09:05:53.949Z,0.63
2019-03-10T09:08:41.157Z,0.50
2019-03-10T09:11:11.695Z,0.70
2019-03-10T09:13:58.285Z,1.13
2019-03-10T09:16:28.810Z,1.07
2019-03-10T09:19:02.305Z,2.07
2019-03-10T09:21:32.872Z,0.57
2019-03-10T09:24:09.475Z,1.27
2019-03-10T09:26:56.068Z,1.17
2019-03-10T09:29:26.598Z,1.30
2019-03-10T09:32:12.483Z,1.93
2019-03-10T09:34:43.112Z,1.33
2019-03-10T09:37:16.365Z,0.77
2019-03-10T09:39:46.889Z,0.93
2019-03-10T09:42:26.296Z,3.77
2019-03-10T09:44:56.829Z,1.70
2019-03-10T09:47:36.208Z,10.17
2019-03-10T09:50:08.612Z,1.13
2019-03-10T09:52:42.232Z,2.10
2019-03-10T09:55:12.765Z,2.77
2019-03-10T09:57:55.773Z,1.13
2019-03-10T10:00:29.170Z,1.10
2019-03-10T10:02:59.723Z,0.77
2019-03-10T10:05:30.255Z,2.03
2019-03-10T10:08:00.821Z,0.93
2019-03-10T10:10:31.345Z,1.53
2019-03-10T10:13:07.701Z,0.73
2019-03-10T10:15:38.602Z,0.70
2019-03-10T10:18:12.253Z,5.77
2019-03-10T10:20:49.063Z,4.37
2019-03-10T10:23:25.667Z,1.87
2019-03-10T10:25:56.237Z,0.43
2019-03-10T10:28:29.332Z,0.67
2019-03-10T10:30:59.996Z,0.63
2019-03-10T10:33:30.592Z,4.00
2019-03-10T10:36:19.103Z,0.90
2019-03-10T10:38:55.347Z,0.77
2019-03-10T10:41:31.749Z,0.73
2019-03-10T10:44:11.463Z,1.80
2019-03-10T10:46:57.327Z,0.40
2019-03-10T10:49:33.912Z,2.00
2019-03-10T10:52:04.477Z,4.50
2019-03-10T10:54:41.218Z,0.90
2019-03-10T10:57:14.370Z,1.10
2019-03-10T10:59:53.801Z,0.80
2019-03-10T11:02:40.714Z,1.03
2019-03-10T11:05:14.358Z,0.60
2019-03-10T11:07:44.944Z,3.70
2019-03-10T11:10:15.749Z,1.00
2019-03-10T11:12:48.860Z,2.63
2019-03-10T11:15:19.388Z,0.80
2019-03-10T11:17:49.974Z,1.47
2019-03-10T11:20:29.515Z,0.73
2019-03-10T11:23:00.065Z,3.40
2019-03-10T11:25:33.318Z,3.90
2019-03-10T11:28:03.859Z,2.73
2019-03-10T11:30:35.400Z,0.80
2019-03-10T11:33:06.092Z,2.43
2019-03-10T11:35:53.544Z,0.70
2019-03-10T11:38:39.552Z,0.53
2019-03-10T11:41:10.188Z,0.70
2019-03-10T11:43:46.426Z,0.70
2019-03-10T11:46:21.040Z,0.47
2019-03-10T11:49:08.179Z,1.07
2019-03-10T11:51:44.738Z,0.93
2019-03-10T11:54:15.321Z,1.73
2019-03-10T11:57:03.495Z,0.93
2019-03-10T11:59:34.026Z,1.60
2019-03-10T12:02:22.717Z,0.50
2019-03-10T12:04:56.869Z,0.73
2019-03-10T12:07:27.428Z,0.77
2019-03-10T12:09:57.402Z,0.93
2019-03-10T12:12:26.278Z,1.43
2019-03-10T12:14:55.198Z,0.70
2019-03-10T12:17:24.092Z,1.20
2019-03-10T12:19:53.090Z,0.60
2019-03-10T12:22:22.005Z,1.03
2019-03-10T12:24:50.986Z,0.60
2019-03-10T12:27:19.876Z,2.20
2019-03-10T12:29:48.798Z,0.90
2019-03-10T12:32:17.701Z,0.60
2019-03-10T12:34:46.639Z,0.77
2019-03-10T12:37:15.567Z,0.60
2019-03-10T12:39:44.457Z,0.60
2019-03-10T12:42:13.341Z,1.97
2019-03-10T12:44:42.274Z,1.47
2019-03-10T12:47:11.177Z,0.83
2019-03-10T12:49:40.071Z,1.40
2019-03-10T12:52:09.061Z,0.50
2019-03-10T12:54:38.026Z,1.20
2019-03-10T12:57:06.955Z,1.47
2019-03-10T12:59:35.881Z,0.40
2019-03-10T13:02:04.846Z,1.67
2019-03-10T13:04:33.821Z,0.60
2019-03-10T13:07:02.816Z,2.30
2019-03-10T13:09:31.741Z,0.30
2019-03-10T13:12:00.695Z,1.07
2019-03-10T13:14:30.956Z,0.40
2019-03-10T13:17:00.101Z,0.53
2019-03-10T13:19:29.041Z,1.00
2019-03-10T13:21:58.283Z,1.07
2019-03-10T13:24:27.174Z,0.50
2019-03-10T13:26:56.113Z,1.37
2019-03-10T13:29:25.048Z,0.30
2019-03-10T13:31:54.932Z,2.70
2019-03-10T13:34:23.826Z,0.73
2019-03-10T13:36:52.798Z,0.87
2019-03-10T13:39:21.694Z,0.50
2019-03-10T13:41:50.649Z,0.50
2019-03-10T13:44:19.587Z,0.80
2019-03-10T13:46:48.481Z,2.63
2019-03-10T13:49:17.400Z,0.47
2019-03-10T13:51:46.445Z,0.50
2019-03-10T13:54:15.369Z,0.53
2019-03-10T13:56:44.324Z,0.43
2019-03-10T13:59:13.276Z,1.27
2019-03-10T14:01:42.164Z,1.83
2019-03-10T14:04:11.043Z,0.53
2019-03-10T14:06:39.968Z,0.30
2019-03-10T14:09:09.792Z,0.60
2019-03-10T14:11:38.875Z,1.40
2019-03-10T14:14:07.794Z,1.40
2019-03-10T14:16:36.727Z,0.60
2019-03-10T14:19:05.616Z,0.47
2019-03-10T14:21:34.577Z,0.37
2019-03-10T14:24:03.519Z,2.10
2019-03-10T14:26:32.483Z,6.83
2019-03-10T14:29:02.447Z,2.80
2019-03-10T14:31:31.372Z,2.60
2019-03-10T14:34:00.261Z,3.20
2019-03-10T14:36:29.289Z,1.50
2019-03-10T14:38:58.190Z,4.00
2019-03-10T14:41:27.167Z,2.70
2019-03-10T14:43:56.123Z,5.47
2019-03-10T14:46:25.134Z,2.17
2019-03-10T14:48:54.033Z,2.03
2019-03-10T14:51:22.959Z,2.37
2019-03-10T14:53:51.897Z,1.93
2019-03-10T14:56:20.787Z,2.27
2019-03-10T14:58:49.776Z,3.63
2019-03-10T15:01:18.768Z,2.27
2019-03-10T15:03:47.785Z,2.30
2019-03-10T15:06:16.737Z,1.97
2019-03-10T15:08:46.517Z,4.07
2019-03-10T15:11:15.754Z,1.30
2019-03-10T15:13:45.555Z,3.77
2019-03-10T15:16:14.543Z,1.60
2019-03-10T15:18:43.429Z,1.93
2019-03-10T15:21:12.314Z,1.70
2019-03-10T15:23:42.292Z,2.40
2019-03-10T15:26:11.268Z,3.00
2019-03-10T15:28:40.220Z,1.50
2019-03-10T15:31:09.131Z,4.50
2019-03-10T15:33:38.054Z,5.90
2019-03-10T15:36:06.959Z,5.10
2019-03-10T15:38:35.841Z,4.43
2019-03-10T15:41:04.841Z,3.07
2019-03-10T15:43:33.816Z,2.63
2019-03-10T15:46:02.690Z,2.97
2019-03-10T15:48:31.633Z,2.63
2019-03-10T15:51:00.533Z,5.63
2019-03-10T15:53:29.496Z,6.93
2019-03-10T15:55:58.483Z,6.37
2019-03-10T15:58:28.335Z,5.50
2019-03-10T16:00:57.226Z,7.57
2019-03-10T16:03:26.154Z,3.80
2019-03-10T16:05:55.123Z,3.23
2019-03-10T16:08:24.022Z,5.07
2019-03-10T16:10:52.934Z,7.33
2019-03-10T16:13:21.814Z,8.20
2019-03-10T16:15:50.710Z,8.83
2019-03-10T16:18:19.642Z,4.33
2019-03-10T16:20:48.535Z,6.20
2019-03-10T16:23:17.491Z,5.80
2019-03-10T16:25:46.448Z,9.97
2019-03-10T16:28:15.530Z,5.80
2019-03-10T16:30:44.484Z,6.20
2019-03-10T16:33:13.832Z,7.77
2019-03-10T16:35:42.890Z,4.23
2019-03-10T16:38:11.776Z,6.07
2019-03-10T16:40:40.691Z,6.87
2019-03-10T16:43:09.589Z,7.23
2019-03-10T16:45:38.477Z,7.40
2019-03-10T16:48:07.492Z,4.90
2019-03-10T16:50:36.397Z,7.90
2019-03-10T16:53:05.362Z,7.37
2019-03-10T16:55:35.849Z,5.87
2019-03-10T16:58:04.878Z,3.40
2019-03-10T17:00:33.839Z,8.80
2019-03-10T17:03:02.867Z,8.97
2019-03-10T17:05:31.761Z,6.23
2019-03-10T17:08:00.877Z,4.73
2019-03-10T17:10:29.853Z,8.10
2019-03-10T17:12:58.783Z,8.97
2019-03-10T17:15:27.738Z,6.93
2019-03-10T17:17:56.676Z,9.67
2019-03-10T17:20:25.578Z,9.20
2019-03-10T17:22:54.634Z,8.03
2019-03-10T17:25:23.625Z,10.27
2019-03-10T17:27:52.553Z,13.70
2019-03-10T17:30:21.996Z,12.20
2019-03-10T17:32:50.998Z,7.30
2019-03-10T17:35:20.268Z,10.10
2019-03-10T17:37:49.238Z,9.53
2019-03-10T17:40:18.680Z,5.87
2019-03-10T17:42:47.688Z,5.83
2019-03-10T17:45:20.132Z,3.87
2019-03-10T17:47:49.084Z,6.90
2019-03-10T17:50:18.406Z,7.10
2019-03-10T17:52:47.727Z,4.93
2019-03-10T17:55:17.384Z,8.00
2019-03-10T17:57:46.412Z,13.37
2019-03-10T18:00:17.582Z,8.00
2019-03-10T18:02:46.550Z,10.53
2019-03-10T18:05:15.605Z,9.33
2019-03-10T18:07:44.573Z,14.57
2019-03-10T18:10:14.585Z,9.20
2019-03-10T18:12:43.522Z,9.97
2019-03-10T18:15:14.052Z,14.50
2019-03-10T18:17:43.010Z,12.73
2019-03-10T18:20:18.750Z,13.83
2019-03-10T18:22:47.651Z,12.77
2019-03-10T18:25:16.760Z,12.50
2019-03-10T18:27:46.676Z,11.00
2019-03-10T18:30:19.280Z,12.87
2019-03-10T18:32:48.445Z,12.97
2019-03-10T18:35:17.417Z,17.17
2019-03-10T18:37:46.385Z,15.03
2019-03-10T18:40:16.753Z,13.67
2019-03-10T18:42:45.717Z,13.63
2019-03-10T18:45:15.479Z,14.37
2019-03-10T18:47:44.480Z,10.10
2019-03-10T18:50:14.972Z,15.27
2019-03-10T18:52:43.958Z,14.13
2019-03-10T18:55:15.193Z,15.50
2019-03-10T18:57:44.194Z,9.83
2019-03-10T19:00:17.855Z,9.20
2019-03-10T19:02:46.807Z,13.10
2019-03-10T19:05:15.960Z,11.93
2019-03-10T19:07:44.910Z,15.47
2019-03-10T19:10:15.556Z,10.23
2019-03-10T19:12:44.597Z,18.30
2019-03-10T19:15:17.722Z,14.57
2019-03-10T19:17:46.737Z,14.50
2019-03-10T19:20:15.715Z,16.47
2019-03-10T19:22:44.792Z,16.07
2019-03-10T19:25:14.490Z,13.63
2019-03-10T19:27:43.491Z,14.17
2019-03-10T19:30:13.732Z,15.97
2019-03-10T19:32:42.830Z,13.57
2019-03-10T19:35:12.340Z,10.17
2019-03-10T19:37:41.518Z,17.10
2019-03-10T19:40:11.751Z,13.47
2019-03-10T19:42:40.919Z,15.27
2019-03-10T19:45:11.264Z,11.03
2019-03-10T19:47:40.345Z,13.57
2019-03-10T19:50:10.840Z,12.30
2019-03-10T19:52:39.865Z,12.70
2019-03-10T19:55:10.074Z,13.37
2019-03-10T19:57:39.217Z,12.57
2019-03-10T20:00:09.779Z,14.23
2019-03-10T20:02:38.950Z,16.13
2019-03-10T20:05:08.323Z,11.90
2019-03-10T20:07:37.625Z,11.97
2019-03-10T20:10:10.866Z,13.67
2019-03-10T20:12:39.906Z,12.37
2019-03-10T20:15:10.464Z,13.70
2019-03-10T20:17:39.626Z,10.60
2019-03-10T20:20:10.095Z,12.37
2019-03-10T20:22:39.057Z,8.70
2019-03-10T20:25:09.286Z,12.80
2019-03-10T20:27:38.366Z,9.53
2019-03-10T20:30:17.452Z,14.47
2019-03-10T20:32:46.468Z,9.00
2019-03-10T20:35:15.493Z,8.03
2019-03-10T20:37:44.534Z,11.03
2019-03-10T20:40:18.202Z,7.33
2019-03-10T20:42:47.225Z,6.07
2019-03-10T20:45:16.198Z,7.67
2019-03-10T20:47:45.457Z,7.00
2019-03-10T20:50:15.121Z,9.03
2019-03-10T20:52:44.360Z,9.47
2019-03-10T20:55:13.894Z,10.17
2019-03-10T20:57:43.275Z,13.67
2019-03-10T21:00:13.875Z,10.83
2019-03-10T21:02:43.057Z,12.07
2019-03-10T21:05:12.197Z,7.37
2019-03-10T21:07:41.183Z,7.53
2019-03-10T21:10:14.824Z,12.03
2019-03-10T21:12:43.878Z,10.03
2019-03-10T21:15:15.020Z,8.03
2019-03-10T21:17:43.909Z,10.47
2019-03-10T21:20:13.990Z,7.10
2019-03-10T21:22:43.012Z,9.90
2019-03-10T21:25:13.342Z,13.00
2019-03-10T21:27:42.313Z,14.13
2019-03-10T21:30:12.923Z,9.63
2019-03-10T21:32:42.005Z,13.07
2019-03-10T21:35:17.696Z,10.57
2019-03-10T21:37:42.748Z,12.10
2019-03-10T21:40:13.085Z,17.47
2019-03-10T21:42:42.118Z,11.60
2019-03-10T21:45:11.128Z,13.93
2019-03-10T21:47:40.109Z,12.20
2019-03-10T21:50:10.385Z,14.90
2019-03-10T21:52:39.387Z,16.10
2019-03-10T21:55:09.851Z,10.37
2019-03-10T21:57:38.986Z,11.17
2019-03-10T22:00:12.227Z,20.33
2019-03-10T22:02:41.179Z,10.73
2019-03-10T22:05:11.046Z,13.70
2019-03-10T22:07:40.135Z,12.73
2019-03-10T22:10:25.845Z,15.80
2019-03-10T22:12:44.695Z,12.77
2019-03-10T22:15:18.142Z,17.30
2019-03-10T22:17:47.136Z,19.37
2019-03-10T22:20:16.612Z,13.13
2019-03-10T22:22:49.339Z,17.23
2019-03-10T22:25:16.457Z,16.60
2019-03-10T22:27:46.286Z,12.50
2019-03-10T22:30:21.941Z,19.77
2019-03-10T22:32:50.860Z,18.93
2019-03-10T22:35:19.786Z,17.80
2019-03-10T22:37:48.691Z,12.20
2019-03-10T22:40:17.782Z,14.63
2019-03-10T22:42:46.739Z,16.60
2019-03-10T22:45:17.172Z,18.27
2019-03-10T22:47:46.233Z,15.33
2019-03-10T22:50:15.536Z,15.60
2019-03-10T22:52:44.493Z,26.07
2019-03-10T22:55:13.858Z,17.40
2019-03-10T22:57:42.884Z,21.23
2019-03-10T23:00:13.117Z,12.60
2019-03-10T23:02:43.638Z,16.93
2019-03-10T23:05:12.632Z,18.03
2019-03-10T23:07:41.526Z,15.23
2019-03-10T23:10:11.842Z,17.03
2019-03-10T23:12:40.770Z,17.17
2019-03-10T23:15:10.699Z,13.60
2019-03-10T23:17:39.668Z,13.60
2019-03-10T23:20:10.121Z,23.27
2019-03-10T23:22:39.006Z,18.63
2019-03-10T23:25:08.472Z,18.37
2019-03-10T23:27:37.544Z,31.27
2019-03-10T23:30:07.979Z,25.30
2019-03-10T23:32:37.011Z,22.93
2019-03-10T23:35:06.206Z,19.27
2019-03-10T23:37:35.175Z,24.30
2019-03-10T23:40:08.524Z,20.57
2019-03-10T23:42:37.416Z,18.30
2019-03-10T23:45:09.052Z,24.77
2019-03-10T23:47:37.964Z,17.63
2019-03-10T23:50:07.931Z,20.30
2019-03-10T23:52:36.907Z,24.00
2019-03-10T23:55:06.989Z,21.57
2019-03-10T23:57:35.888Z,16.73
